Tiempo atmosférico en la estación meteorológica de Lleida, Lleida (192 m.)



Fecha
DESCASC
Temp. máxima en grados centígrados (hora)
DESCASC
Temp. mínima en grados centígrados (hora)
DESCASC
Temp. media en grados centígrados
DESCASC
Racha de viento máxima en m/sg (hora)
DESCASC
Velocidad máxima media en intervalos de 10 minutos(hora)
DESCASC
Precipitaciones diarias en mm
DESCASC
Precipitaciones de 00:00 a 06:00 en mm
DESCASC
Precipitaciones de 06:00 a 12:00 en mm
DESCASC
Precipitaciones de 12:00 a 18:00 en mm
DESCASC
Precipitaciones de 18:00 a 24:00 en mm
DESCASC
25-01-2020 13.7 (15:10) 5.3 (05:40) 9.5 5 (13:40) 3.06 (13:30) 0 0 0 0 0
24-01-2020 11.4 (15:00) 1.4 (07:50) 6.4 3.61 (01:30) 2.5 (01:30) 0 0 0 0 0
23-01-2020 10.7 (16:00) 5.8 (23:50) 8.3 6.39 (04:10) 4.72 (04:10) 17 12.8 4.2 0 0
22-01-2020 8.8 (12:10) 5.6 (00:00) 7.2 8.06 (15:10) 5 (02:20) 27.4 2.6 0 8.8 16
21-01-2020 11.5 (20:30) 7.1 (00:00) 9.3 23.61 (16:20) 12.22 (14:30) 24.2 1.4 1.6 0 21.2
20-01-2020 9.5 (18:40) 1.4 (00:00) 5.4 12.5 (18:30) 7.5 (18:40) 0.6 0 0 0 0.6
19-01-2020 9.5 (15:30) 2 (00:00) 5.8 5.28 (01:20) 3.33 (01:20) 12.4 12.2 0.2 0 0
18-01-2020 11.3 (15:10) 1.9 (00:00) 6.6 5 (00:30) 3.61 (00:30) 0.8 0 0 0 0.8
17-01-2020 15.1 (15:10) 0.7 (00:00) 7.9 14.72 (15:50) 9.17 (16:10) 0 0 0 0 0
16-01-2020 9.6 (16:10) -0.6 (-00:0) 4.5 3.06 (19:20) 2.22 (19:00) 0 0 0 0 0
15-01-2020 2.2 (16:00) -0.8 (-00:0) 0.7 3.33 (09:00) 2.22 (09:10) 0 0 0 0 0
14-01-2020 2.2 (16:10) -0.5 (-00:0) 0.9 3.06 (14:50) 1.67 (02:30) 0 0 0 0 0
13-01-2020 1.8 (16:30) -0.4 (00:00) 0.7 3.33 (10:10) 2.5 (08:20) 0 0 0 0 0
12-01-2020 2.4 (15:40) -3.4 (-00:0) -0.5 2.78 (11:50) 1.94 (14:10) 0 0 0 0 0
11-01-2020 9.7 (16:00) -0.4 (00:00) 4.6 3.89 (18:30) 2.5 (11:00) 0 0 0 0 0
10-01-2020 8.7 (16:10) 2.6 (00:00) 5.6 5.83 (04:20) 3.61 (04:20) 0.4 0.2 0.2 0 0
09-01-2020 4.5 (15:20) 2.6 (00:00) 3.5 3.89 (19:30) 2.5 (19:20) 0 0 0 0 0
08-01-2020 5 (15:30) 1.9 (00:00) 3.4 4.72 (09:40) 3.06 (09:40) 0 0 0 0 0
07-01-2020 3.9 (00:00) 2.7 (00:00) 3.3 3.89 (13:30) 2.5 (01:30) 0.2 0.2 0 0 0
06-01-2020 4.1 (15:20) 0.4 (00:00) 2.2 3.89 (14:00) 2.22 (13:40) 0 0 0 0 0
05-01-2020 6.2 (15:30) 3.3 (00:00) 4.7 4.72 (18:30) 2.5 (16:30) 0 0 0 0 0
04-01-2020 4.1 (15:30) 2.4 (00:00) 3.3 3.33 (17:50) 2.22 (18:40) 0 0 0 0 0
03-01-2020 3.5 (00:30) 1.6 (00:00) 2.6 4.72 (07:30) 3.06 (08:40) 0 0 0 0 0
02-01-2020 3.6 (00:00) 1.7 (00:00) 2.6 3.61 (06:50) 2.5 (07:00) 0 0 0 0 0
01-01-2020 4.1 (13:40) 3.2 (00:00) 3.6 3.89 (11:50) 2.5 (11:30) 0 0 0 0 0
31-12-2019 5.6 (14:50) 3.8 (00:00) 4.7 4.17 (19:30) 2.78 (17:10) 0 0 0 0 0
30-12-2019 -- (--) -- (--) -- -- (--) -- (--) -- 0 0 0 --
29-12-2019 5.8 (16:20) 3.4 (00:00) 4.6 2.78 (02:40) 1.39 (02:40) 0 0 0 0 0
28-12-2019 5.6 (00:00) 4.1 (00:00) 4.8 3.06 (08:10) 1.94 (08:10) 0 0 0 0 0

Gráficas

Temp. máximas Temp. mínimas Temp. medias Precipitaciones Rachas de viento máximas Velocidades máximas media en intervalos de 10 minutos

Datos horarios

Fecha y hora oficial Temperatura (ºC) Velocidad del viento (km/h) Dirección del viento Racha (km/h) Dirección de racha Precipitación (mm) Presión (hPa) Tendencia (hPa) Humedad (%)
2020-01-26 23:00:00 5.7 4 Sudoeste 9 Sudoeste 0 999.4 1.1 94
2020-01-26 22:00:00 6.4 4 Sudoeste 8 Sudoeste 0 999.2 1.4 92
2020-01-26 21:00:00 8 7 Sudoeste 10 Sudoeste 0 998.9 1.6 90
2020-01-26 20:00:00 8 6 Sur 8 Sur 0 998.3 1.4 92
2020-01-26 19:00:00 9.4 5 Sudoeste 9 Sur 0 997.8 1 85
2020-01-26 18:00:00 11.4 7 Sur 11 Sur 0 997.3 0.6 78
2020-01-26 17:00:00 12.7 9 Sudoeste 16 Sudoeste 0 996.9 -0.3 71
2020-01-26 16:00:00 12.3 7 Oeste 18 Oeste 0 996.8 -0.6 73
2020-01-26 15:00:00 12.6 13 Oeste 24 Noroeste 0 996.7 -1.1 72
2020-01-26 14:00:00 11 8 Sudoeste 14 Oeste 0 997.2 -0.2 84
2020-01-26 13:00:00 10 6 Oeste 17 Sudoeste 0 997.4 0.5 89
2020-01-26 12:00:00 9.1 7 Sudoeste 15 Sudoeste 0 997.8 1.5 96
2020-01-26 11:00:00 8.9 10 Sudoeste 14 Sudoeste 0 997.4 1.8 95
2020-01-26 10:00:00 7.8 9 Sudoeste 19 Sur 0 996.9 2.2 98
2020-01-26 09:00:00 7.8 6 Sudoeste 11 Sudoeste 0 996.3 1.8 97
2020-01-26 08:00:00 7.7 4 Oeste 6 Sudoeste 0 995.6 1.2 97
2020-01-26 07:00:00 7.5 4 Sudoeste 5 Oeste 0 994.7 0.1 96
2020-01-26 06:00:00 7.9 2 Este 5 Norte 0.8 994.5 0 94
2020-01-26 05:00:00 8.1 5 Nordeste 7 Nordeste 0.8 994.4 0 92
2020-01-26 04:00:00 8.6 5 Este 10 Nordeste 0 994.6 0 84
2020-01-26 03:00:00 8.6 6 Nordeste 10 Nordeste 0 994.5 -0.1 86
2020-01-26 02:00:00 8.8 4 Norte 8 Norte 0 994.4 -0.5 89
2020-01-26 01:00:00 9.1 3 Nordeste 9 Nordeste 0 994.6 -0.5 86
2020-01-26 00:00:00 9.2 7 Nordeste 12 Nordeste 0 994.6 -0.2 88
2020-01-25 23:00:00 9.4 5 Nordeste 11 Nordeste 0 994.9 0.2 87
2020-01-25 22:00:00 9.7 6 Nordeste 15 Nordeste 0 995.1 0.8 86
2020-01-25 21:00:00 10.2 8 Nordeste 14 Nordeste 0 994.8 0.9 84
2020-01-25 20:00:00 10.8 5 Nordeste 9 Nordeste 0 994.7 0.7 79
2020-01-25 19:00:00 11.1 6 Nordeste 9 Nordeste 0 994.3 0.2 78
2020-01-25 18:00:00 12 7 Nordeste 14 Nordeste 0 993.9 -0.8 74
2020-01-25 17:00:00 13 9 Nordeste 15 Este 0 994 -1.6 72
2020-01-25 16:00:00 13.4 7 Nordeste 17 Nordeste 0 994.1 -2.5 67
2020-01-25 15:00:00 13.6 9 Nordeste 18 Este 0 994.7 -2.6 70
2020-01-25 14:00:00 12.8 9 Nordeste 18 Nordeste 0 995.6 -1.7 74
2020-01-25 13:00:00 12.1 8 Este 14 Nordeste 0 996.6 -0.4 73
2020-01-25 12:00:00 9.6 6 Nordeste 16 Nordeste 0 997.3 0.6 81
2020-01-25 11:00:00 8.1 5 Nordeste 12 Nordeste 0 997.3 1 86
2020-01-25 10:00:00 7.2 6 Nordeste 12 Nordeste 0 997 1 88
2020-01-25 09:00:00 6.4 7 Nordeste 13 Nordeste 0 996.7 0.4 89
2020-01-25 08:00:00 6.2 6 Nordeste 12 Norte 0 996.3 0.1 89
2020-01-25 07:00:00 5.9 8 Norte 12 Norte 0 996 -0.7 90
2020-01-25 06:00:00 5.5 6 Nordeste 11 Nordeste 0 996.3 -0.6 92
2020-01-25 05:00:00 5.8 7 Nordeste 11 Nordeste 0 996.2 -0.9 91
2020-01-25 04:00:00 6.3 6 Nordeste 13 Norte 0 996.7 -0.9 90
2020-01-25 03:00:00 6.5 7 Nordeste 12 Nordeste 0 996.9 -1.1 93
2020-01-25 02:00:00 6.5 6 Norte 12 Nordeste 0 997.1 -1.2 95
2020-01-25 01:00:00 6.4 7 Norte 10 Nordeste 0 997.6 -0.6 97
2020-01-25 00:00:00 6.4 4 Nordeste 8 Norte 0 998 0.2 97
2020-01-24 23:00:00 6.6 6 Norte 8 Norte 0 998.3 0.8 97
2020-01-24 22:00:00 6.5 4 Nordeste 8 Este 0 998.2 1.2 98
2020-01-24 21:00:00 5.8 3 Norte 8 Norte 0 997.8 1.1 96
2020-01-24 20:00:00 6.5 5 Norte 8 Norte 0 997.5 0.7 94
2020-01-24 19:00:00 7.4 2 Sudoeste 4 Sudoeste 0 997 0.1 89
2020-01-24 18:00:00 9.1 4 Sudoeste 9 Sudoeste 0 996.7 -0.3 85
2020-01-24 17:00:00 9.6 6 Sudoeste 12 Sudoeste 0 996.8 -0.9 86
2020-01-24 16:00:00 10.7 7 Sudoeste 12 Sudoeste 0 996.9 -1.7 82
2020-01-24 15:00:00 11.4 6 Sur 11 Sur 0 997 -2.4 82
2020-01-24 14:00:00 11.1 5 Sudeste 11 Sur 0 997.7 -1.7 83
2020-01-24 13:00:00 8.9 4 Norte 6 Noroeste 0 998.6 -0.6 88
2020-01-24 12:00:00 6 3 Nordeste 7 Este 0 999.4 0.7 97
2020-01-24 11:00:00 4.2 4 Nordeste 9 Nordeste 0 999.4 0.6 99
2020-01-24 10:00:00 3.1 0 Calma 5 Sur 0 999.2 0.8 99
2020-01-24 09:00:00 1.8 3 Noroeste 5 Sudoeste 0 998.7 0.3 99
2020-01-24 08:00:00 1.4 5 Sudoeste 10 Sudoeste 0 998.8 0.5 97
2020-01-24 07:00:00 2.2 3 Sudoeste 6 Sudoeste 0 998.4 -0.1 96
2020-01-24 06:00:00 3.2 0 Calma 6 Oeste 0 998.4 -0.5 96
2020-01-24 05:00:00 4.1 3 Sudoeste 10 Nordeste 0 998.3 -1 93
2020-01-24 04:00:00 5.5 7 Norte 10 Norte 0 998.5 -1.2 94
2020-01-24 03:00:00 6.1 5 Nordeste 11 Nordeste 0 998.9 -1 93
2020-01-24 02:00:00 6.4 5 Nordeste 13 Nordeste 0 999.3 -0.3 92
2020-01-24 01:00:00 6.1 8 Nordeste 12 Nordeste 0 999.7 -- 93
2020-01-24 00:00:00 5.8 8 Nordeste 15 Norte 0 999.9 0.5 93
2020-01-23 23:00:00 6.2 9 Nordeste 17 Nordeste 0 999.6 0.7 92
2020-01-23 22:00:00 6.6 8 Nordeste 15 Nordeste 0 -- -- 92
2020-01-23 21:00:00 6.1 5 Nordeste 9 Norte 0 999.4 1.3 94
2020-01-23 20:00:00 6.4 6 Nordeste 8 Nordeste 0 998.9 1 92
2020-01-23 19:00:00 7.5 5 Nordeste 8 Nordeste 0 998.5 0.7 90
2020-01-23 18:00:00 8.9 4 Nordeste 17 Nordeste 0 998.1 0.4 83
2020-01-23 17:00:00 10 12 Nordeste 18 Este 0 997.9 -0.1 75
2020-01-23 16:00:00 10.4 8 Nordeste 18 Este 0 997.8 -- 77
2020-01-23 15:00:00 10 8 Nordeste 15 Nordeste 0 997.7 -0.5 78
2020-01-23 14:00:00 9.6 9 Nordeste 13 Este 0 998 0 86
2020-01-23 13:00:00 8.6 3 Este 9 Norte 0 -- -- 94
2020-01-23 12:00:00 7.4 3 Norte 7 Sur 1 998.2 1.3 98
2020-01-23 11:00:00 6.5 5 Sudoeste 9 Sudoeste 1.4 998 1.9 98
2020-01-23 10:00:00 6.3 8 Sudoeste 15 Sudoeste 1 997.4 2.3 98
2020-01-23 09:00:00 6.2 8 Sudoeste 12 Sudoeste 0.6 996.9 1.8 98
2020-01-23 08:00:00 6 8 Sudoeste 18 Sudoeste 0.2 996.1 1.3 97
2020-01-23 07:00:00 6.1 12 Sudoeste 18 Oeste 0 995.1 -0.2 98
2020-01-23 06:00:00 6.2 8 Sur 17 Sudoeste 0.2 995.1 -0.7 98
2020-01-23 05:00:00 6.2 11 Sudoeste 23 Sudoeste 4 994.8 -2.1 98
2020-01-23 04:00:00 6.3 11 Sudoeste 21 Sudoeste 1.4 995.3 -2 98
2020-01-23 03:00:00 6.4 9 Sudoeste 17 Sudoeste 4 995.8 -1.9 98
2020-01-23 02:00:00 6.7 6 Sur 10 Sur 1 996.9 -0.7 97
2020-01-23 01:00:00 7 5 Sudeste 11 Noroeste 2.2 997.3 0.5 93
2020-01-23 00:00:00 7.2 7 Norte 24 Noroeste 3.4 997.7 1.3 93
2020-01-22 23:00:00 7.3 12 Noroeste 22 Noroeste 2.6 997.6 1.9 91
2020-01-22 22:00:00 7.3 4 Noroeste 10 Noroeste 1.4 996.8 1.4 95
2020-01-22 21:00:00 7.3 5 Sudoeste 14 Noroeste 2.6 996.4 1 96
2020-01-22 20:00:00 7.8 10 Noroeste 19 Norte 2.2 995.7 -0.1 92
2020-01-22 19:00:00 8.1 12 Noroeste 28 Noroeste 3.8 995.4 -0.4 94
2020-01-22 18:00:00 7.8 8 Oeste 12 Oeste 4.6 995.4 -1.7 97
2020-01-22 17:00:00 8.4 3 Noroeste 16 Noroeste 3.8 995.8 -1.4 94
2020-01-22 16:00:00 7.9 7 Sudoeste 29 Sur 0.2 995.8 -2.2 97
2020-01-22 15:00:00 8.1 8 Sur 25 Sur 0.2 997.1 -1.5 92
2020-01-22 14:00:00 7.9 10 Sudoeste 19 Sudoeste 0 997.2 -1.7 92
2020-01-22 13:00:00 7.8 7 Sudoeste 14 Sudoeste 0 998 -0.9 89
2020-01-22 12:00:00 8.7 7 Sur 12 Sur 0 998.6 0.2 85
2020-01-22 11:00:00 6.3 6 Sudoeste 12 Sur 0 998.9 1 93
2020-01-22 10:00:00 5.7 7 Sudoeste 12 Sudoeste 0 998.9 1.6 93
2020-01-22 09:00:00 6.4 5 Sudoeste 20 Este 0 998.4 0.9 87
2020-01-22 08:00:00 7.5 9 Este 21 Nordeste 0 997.9 0.3 84
2020-01-22 07:00:00 7.3 13 Este 22 Este 0 997.3 -0.9 83
2020-01-22 06:00:00 6.1 8 Nordeste 13 Nordeste 0 997.5 -1 90
2020-01-22 05:00:00 7 7 Nordeste 21 Nordeste 0 997.6 -1.1 86
2020-01-22 04:00:00 7 9 Nordeste 17 Nordeste 0 998.2 -0.6 88
2020-01-22 03:00:00 7.6 10 Nordeste 27 Este 0 998.5 -0.6 89
2020-01-22 02:00:00 7.7 12 Nordeste 24 Nordeste 0 998.7 -0.8 92
2020-01-22 01:00:00 7.2 12 Nordeste 27 Nordeste 2.6 998.8 0.4 96
2020-01-22 00:00:00 7.6 8 Norte 23 Este 9.8 999.1 1.8 95
2020-01-21 23:00:00 8.5 15 Este 33 Sudeste 9.8 999.5 2.8 91
2020-01-21 22:00:00 10.2 24 Este 50 Nordeste 1.6 998.4 1.7 85
2020-01-21 21:00:00 11.4 30 Nordeste 64 Nordeste 0 997.3 1.2 72
2020-01-21 20:00:00 11.3 31 Este 61 Nordeste 0 996.7 0.2 70
2020-01-21 19:00:00 11 35 Este 64 Nordeste 0 996.7 0.3 69
2020-01-21 18:00:00 10.9 34 Este 67 Este 0 996.1 -0.5 70
2020-01-21 17:00:00 10.8 37 Este 85 Nordeste 0 996.5 -1.3 71
2020-01-21 16:00:00 10.9 37 Nordeste 77 Este 0 996.4 -1.6 68
2020-01-21 15:00:00 10.8 39 Nordeste 82 Este 0 996.6 -2.3 69
2020-01-21 14:00:00 10.6 34 Nordeste 68 Nordeste 0 997.8 -1.3 69
2020-01-21 13:00:00 10.2 36 Nordeste 63 Este 0 998 -0.8 72
2020-01-21 12:00:00 8.9 31 Este 58 Este 0.2 998.9 -0.2 80
2020-01-21 11:00:00 8.5 29 Este 65 Este 1 999.1 -0.5 78
2020-01-21 10:00:00 7.7 32 Nordeste 72 Nordeste 0.4 998.8 -1.1 81
2020-01-21 09:00:00 8.7 27 Este 53 Nordeste 0 999.1 -1 72
2020-01-21 08:00:00 8.8 25 Este 53 Este 0 999.6 -1.2 68
2020-01-21 07:00:00 8.4 24 Este 46 Este 0 999.9 -1.5 68
2020-01-21 06:00:00 8.2 21 Este 42 Este 0 1000.1 -1.8 70
2020-01-21 05:00:00 7.2 18 Este 49 Este 0.6 1000.8 -1.2 78
2020-01-21 04:00:00 8.4 23 Este 48 Este 0 1001.4 -1.2 67
2020-01-21 03:00:00 8.7 26 Este 41 Este 0.6 1001.9 -1.3 65
2020-01-21 02:00:00 8.3 21 Nordeste 40 Este 0.2 1002 -1.4 65
2020-01-21 01:00:00 8.3 14 Este 28 Este 0 1002.6 -0.7 62
2020-01-21 00:00:00 8.2 10 Este 26 Este 0 1003.2 -0.2 63
2020-01-20 23:00:00 7.8 12 Nordeste 24 Nordeste 0 1003.4 0.3 65
2020-01-20 22:00:00 7.6 10 Norte 19 Nordeste 0.4 1003.3 0.8 67
2020-01-20 21:00:00 8.2 9 Nordeste 25 Nordeste 0.2 1003.4 1.1 63
2020-01-20 20:00:00 8.6 12 Nordeste 40 Este 0 1003.1 -- 58
2020-01-20 19:00:00 9.4 24 Este 45 Este 0 1002.5 -- 53
2020-01-20 18:00:00 5.9 6 Norte 15 Norte 0 1002.3 0.4 78
2020-01-20 17:00:00 4.8 5 Sudoeste 9 Oeste 0 -- -- 87
2020-01-20 16:00:00 5 6 Sudoeste 10 Sudoeste 0 -- -- 84
2020-01-20 15:00:00 5.4 5 Sur 14 Sur 0 1001.9 -1.6 78
2020-01-20 14:00:00 5.5 6 Noroeste 17 Noroeste 0 1002.2 -1.6 75
2020-01-20 13:00:00 4.3 7 Noroeste 21 Noroeste 0 1003.3 0.6 73
2020-01-20 12:00:00 3.6 4 Oeste 12 Noroeste 0 1003.5 0.8 75
2020-01-20 11:00:00 3.5 4 Noroeste 17 Oeste 0 1003.8 1.4 73
2020-01-20 10:00:00 3 13 Oeste 22 Noroeste 0 1002.7 0.5 75
2020-01-20 09:00:00 2.4 3 Sudeste 25 Oeste 0 1002.7 1 78
2020-01-20 08:00:00 2 10 Oeste 21 Oeste 0 1002.4 0.9 84
2020-01-20 07:00:00 1.8 9 Sudoeste 19 Sudoeste 0 1002.2 0.7 87
2020-01-20 06:00:00 1.7 10 Sudoeste 21 Sudoeste 0 1001.7 0.3 90
2020-01-20 05:00:00 1.6 10 Sudoeste 15 Sur 0 1001.5 -0.3 96
2020-01-20 04:00:00 1.6 7 Sur 12 Sudoeste 0 1001.5 -0.1 97
2020-01-20 03:00:00 2.6 6 Oeste 12 Sudoeste 0 1001.4 -0.1 99
2020-01-20 02:00:00 2.4 5 Sudoeste 9 Sur 0 1001.8 0.5 99
2020-01-20 01:00:00 2 8 Sudoeste 11 Sur 0 1001.6 0.7 98
2020-01-20 00:00:00 2 4 Oeste 8 Sudoeste 0 1001.5 1.2 97
2020-01-19 23:00:00 2.9 2 Noroeste 6 Norte 0 1001.3 1.9 96
2020-01-19 22:00:00 3.9 3 Norte 6 Norte 0 1000.9 2.2 97
2020-01-19 21:00:00 4.3 2 Sudoeste 8 Noroeste 0 1000.3 2.4 94
2020-01-19 20:00:00 5.6 5 Oeste 8 Sudoeste 0 999.4 2 94
2020-01-19 19:00:00 7.1 3 Sur 8 Sudoeste 0 998.7 1.8 93
2020-01-19 18:00:00 8.3 3 Sur 12 Sur 0 997.9 1.1 89
2020-01-19 17:00:00 9 8 Sudoeste 16 Sudoeste 0 997.4 0.3 86
2020-01-19 16:00:00 9.4 7 Sudoeste 11 Sudoeste 0 996.9 -0.4 86
2020-01-19 15:00:00 9.2 5 Sur 11 Sur 0 996.8 -0.6 86
2020-01-19 14:00:00 8.8 6 Sur 10 Sudoeste 0 997.1 -0.1 92
2020-01-19 13:00:00 8.5 4 Sur 12 Noroeste 0 997.3 0.5 90
2020-01-19 12:00:00 7.7 5 Noroeste 9 Noroeste 0 997.4 1.6 94
2020-01-19 11:00:00 6.8 7 Oeste 11 Oeste 0 997.2 1.9 95
2020-01-19 10:00:00 6.4 2 Oeste 7 Sudeste 0 996.8 1.8 97
2020-01-19 09:00:00 6.1 7 Sur 10 Sur 0 995.8 1.2 97
2020-01-19 08:00:00 6.2 4 Sur 6 Sur 0 995.3 0.7 96
2020-01-19 07:00:00 6.3 4 Sur 13 Sur 0.2 995 0.3 96
2020-01-19 06:00:00 6.5 5 Sudoeste 11 Sur 1.2 994.6 0.1 97
2020-01-19 05:00:00 6.5 2 Sudoeste 9 Norte 3.4 994.6 -0.2 95
2020-01-19 04:00:00 6.6 4 Nordeste 18 Norte 3.6 994.7 -0.1 94
2020-01-19 03:00:00 7.2 6 Norte 11 Norte 4 994.5 -0.6 87
2020-01-19 02:00:00 8.1 9 Sudoeste 19 Este 0 994.8 -1 74
2020-01-19 01:00:00 8.1 10 Nordeste 18 Este 0 994.8 -2.1 73
2020-01-19 00:00:00 7.6 9 Nordeste 17 Nordeste 0 995.1 -2.4 81
2020-01-18 23:00:00 7.6 9 Nordeste 15 Nordeste 0 995.8 -1.9 84
2020-01-18 22:00:00 7.7 8 Nordeste 12 Nordeste 0.4 996.9 -0.9 84
2020-01-18 21:00:00 8.3 6 Norte 12 Nordeste 0.2 997.5 -0.5 77
2020-01-18 20:00:00 8.7 8 Norte 12 Norte 0.2 997.7 -1.1 75
2020-01-18 19:00:00 9.5 7 Nordeste 10 Norte 0 997.8 -2.1 67
2020-01-18 18:00:00 10.3 5 Nordeste 9 Nordeste 0 998 -2.9 61
2020-01-18 17:00:00 10.9 6 Nordeste 13 Nordeste 0 998.8 -3.6 57
2020-01-18 16:00:00 11.1 6 Este 12 Norte 0 999.9 -4.3 56
2020-01-18 15:00:00 11.2 7 Nordeste 15 Nordeste 0 1000.9 -4.7 55
2020-01-18 14:00:00 10 9 Nordeste 16 Este 0 1002.4 -4 62
2020-01-18 13:00:00 8.6 6 Este 12 Este 0 1004.2 -2.1 64
2020-01-18 12:00:00 7.2 5 Nordeste 12 Nordeste 0 1005.6 -1.3 75
2020-01-18 11:00:00 3.9 5 Nordeste 15 Nordeste 0 1006.4 -0.8 85
2020-01-18 10:00:00 3 7 Nordeste 12 Nordeste 0 1006.3 -0.7 88
2020-01-18 09:00:00 2.3 6 Nordeste 12 Nordeste 0 1006.9 0 88
2020-01-18 08:00:00 2.4 7 Nordeste 10 Nordeste 0 1007.2 0.6 88
2020-01-18 07:00:00 2.3 5 Nordeste 11 Nordeste 0 1007 0.3 87
2020-01-18 06:00:00 2.2 7 Norte 13 Nordeste 0 1006.9 0.1 87
2020-01-18 05:00:00 2 9 Nordeste 13 Norte 0 1006.6 0 85
2020-01-18 04:00:00 2.5 7 Sudoeste 11 Sudoeste 0 1006.7 0.1 85
2020-01-18 03:00:00 2.6 8 Sudoeste 13 Sudoeste 0 1006.8 0.3 83
2020-01-18 02:00:00 3.7 8 Sudoeste 17 Oeste 0 1006.6 0.1 78
2020-01-18 01:00:00 4.7 6 Oeste 18 Oeste 0 1006.6 0.3 75
2020-01-18 00:00:00 5.8 8 Sudoeste 26 Oeste 0 1006.5 0.2 71
2020-01-17 23:00:00 6.9 14 Oeste 31 Noroeste 0 1006.5 0.8 68
2020-01-17 22:00:00 6.8 11 Oeste 19 Oeste 0 1006.3 -- 70
2020-01-17 21:00:00 7.7 8 Sur 27 Oeste 0 1006.3 -- 67
2020-01-17 20:00:00 9.1 15 Oeste 29 Oeste 0 1005.7 -- 65
2020-01-17 19:00:00 10.1 15 Oeste 33 Oeste 0 -- -- 61
2020-01-17 18:00:00 11.4 20 Oeste 33 Oeste 0 -- -- 57
2020-01-17 17:00:00 13.4 18 Oeste 51 Oeste 0 -- -- 51
2020-01-17 16:00:00 14.7 32 Oeste 53 Oeste 0 1002.4 -1 53
2020-01-17 15:00:00 15 27 Oeste 45 Oeste 0 1002 -2.1 57
2020-01-17 14:00:00 12 10 Oeste 17 Oeste 0 1002.6 -1.7 79
2020-01-17 13:00:00 7.2 4 Sur 10 Sudoeste 0 1003.4 -0.1 100
2020-01-17 12:00:00 4.6 4 Sudoeste 9 Sur 0 1004.1 1.1 100
2020-01-17 11:00:00 3.7 3 Sudeste 7 Sudoeste 0 1004.3 1.7 100
2020-01-17 10:00:00 3.2 3 Sudoeste 8 Oeste 0 1003.5 1.2 100
2020-01-17 09:00:00 2.8 6 Oeste 11 Oeste 0 1003 0.6 100
2020-01-17 08:00:00 2 6 Sudoeste 10 Sudoeste 0 1002.6 0.2 99
2020-01-17 07:00:00 1.6 5 Sudoeste 11 Sur 0 1002.3 -0.2 99
2020-01-17 06:00:00 1.9 3 Sur 11 Sudoeste 0 1002.4 -0.1 99
2020-01-17 05:00:00 0.9 5 Sudoeste 8 Sudoeste 0 1002.4 -0.2 99
2020-01-17 04:00:00 1 0 Calma 5 Sur 0 1002.5 -0.1 97
2020-01-17 03:00:00 1.5 2 Sur 6 Noroeste 0 1002.5 -0.5 97
2020-01-17 02:00:00 2.1 0 Calma 6 Oeste 0 1002.6 -0.1 97
2020-01-17 01:00:00 2.6 0 Calma 7 Sudoeste 0 1002.6 -0.2 97
2020-01-17 00:00:00 2.5 2 Sudeste 9 Norte 0 1003 0.5 95
2020-01-16 23:00:00 3.3 5 Nordeste 10 Este 0 1002.7 0.4 97
2020-01-16 22:00:00 3.5 4 Nordeste 8 Norte 0 1002.8 0.9 92
2020-01-16 21:00:00 4 4 Este 5 Este 0 1002.5 0.7 91
2020-01-16 20:00:00 5.3 6 Norte 11 Norte 0 1002.3 0.3 87
2020-01-16 19:00:00 6.7 8 Norte 10 Norte 0 1001.9 -0.6 83
2020-01-16 18:00:00 8 5 Nordeste 8 Nordeste 0 1001.8 -0.9 77
2020-01-16 17:00:00 9.3 4 Este 6 Este 0 1002 -1.5 72
2020-01-16 16:00:00 9.3 2 Sudoeste 6 Sudoeste 0 1002.5 -2.2 77
2020-01-16 15:00:00 6.6 2 Sudoeste 10 Oeste 0 1002.7 -2.8 88
2020-01-16 14:00:00 4.1 6 Sur 9 Sudoeste 0 1003.5 -2.3 96
2020-01-16 13:00:00 2.9 4 Sur 7 Sur 0 1004.7 -1.1 100
2020-01-16 12:00:00 1.6 3 Sudoeste 5 Sudeste 0 1005.5 -0.1 100
2020-01-16 11:00:00 0.5 2 Noroeste 7 Sudoeste 0 1005.8 0.6 100
2020-01-16 10:00:00 -0.2 3 Oeste 5 Oeste 0 1005.8 0.6 100
2020-01-16 09:00:00 -0.5 2 Sudoeste 6 Nordeste 0 1005.6 0.7 100
2020-01-16 08:00:00 -0.3 5 Nordeste 8 Nordeste 0 1005.2 0.3 100
2020-01-16 07:00:00 -0.2 2 Nordeste 9 Nordeste 0 1005.2 0.3 100
2020-01-16 06:00:00 0.2 3 Nordeste 6 Nordeste 0 1004.9 0.3 100
2020-01-16 05:00:00 0.3 2 Oeste 5 Norte 0 1004.9 0.6 100
2020-01-16 04:00:00 0.2 2 Norte 5 Nordeste 0 1004.9 0.3 100
2020-01-16 03:00:00 0.5 3 Este 7 Sudoeste 0 1004.6 0 100
2020-01-16 02:00:00 0.6 4 Sudoeste 8 Sudoeste 0 1004.3 0.1 100
2020-01-16 01:00:00 0.9 4 Sudoeste 6 Sudoeste 0 1004.6 0.6 99
2020-01-16 00:00:00 1.2 3 Sur 5 Sur 0 1004.6 0.9 99
2020-01-15 23:00:00 1.2 2 Norte 6 Norte 0 1004.2 0.8 100
2020-01-15 22:00:00 1.3 4 Nordeste 10 Este 0 1004 1.4 99
2020-01-15 21:00:00 1.2 6 Nordeste 12 Nordeste 0 1003.7 1.9 99
2020-01-15 20:00:00 1.2 3 Nordeste 6 Este 0 1003.4 2 99
2020-01-15 19:00:00 1.4 0 Calma 6 Norte 0 1002.6 1.3 98
2020-01-15 18:00:00 1.7 2 Sudoeste 6 Sur 0 1001.8 0.7 97
2020-01-15 17:00:00 2 6 Sudoeste 10 Sudoeste 0 1001.4 -0.4 96
2020-01-15 16:00:00 2.2 3 Sudoeste 9 Sudoeste 0 1001.3 -1.1 97
2020-01-15 15:00:00 1.8 4 Sur 8 Noroeste 0 1001.1 -1.8 98
2020-01-15 14:00:00 1.3 5 Sudoeste 7 Oeste 0 1001.8 -0.9 99
2020-01-15 13:00:00 0.6 3 Noroeste 8 Noroeste 0 1002.4 0.6 100
2020-01-15 12:00:00 -0.1 4 Norte 10 Nordeste 0 1002.9 1.6 100
2020-01-15 11:00:00 -0.6 5 Norte 10 Nordeste 0 1002.7 1.9 100
2020-01-15 10:00:00 -0.6 6 Este 12 Nordeste 0 1001.8 1.3 99
2020-01-15 09:00:00 -0.2 6 Nordeste 12 Nordeste 0 1001.3 0.9 99
2020-01-15 08:00:00 -0.1 2 Este 5 Sudeste 0 1000.8 0.7 100
2020-01-15 07:00:00 -0.2 2 Sudeste 6 Sudeste 0 1000.5 0.4 100
2020-01-15 06:00:00 0 4 Noroeste 6 Sudoeste 0 1000.4 0.5 100
2020-01-15 05:00:00 0.2 3 Sudoeste 7 Sur 0 1000.1 0.1 100
2020-01-15 04:00:00 0.4 4 Sur 9 Sur 0 1000.1 0 100
2020-01-15 03:00:00 0.5 3 Sudeste 6 Nordeste 0 999.9 -0.2 100
2020-01-15 02:00:00 0.5 5 Sur 9 Sur 0 1000 0 99
2020-01-15 01:00:00 0.7 2 Sudeste 7 Oeste 0 1000.1 0.3 99
2020-01-15 00:00:00 1 2 Oeste 7 Oeste 0 1000.1 0.6 99
2020-01-14 23:00:00 1.1 4 Sudoeste 9 Sur 0 1000 0.7 99
2020-01-14 22:00:00 1.2 5 Sudoeste 10 Sudoeste 0 999.8 0.9 99
2020-01-14 21:00:00 1.6 3 Este 5 Este 0 999.5 1.1 99
2020-01-14 20:00:00 1.6 4 Sudeste 7 Sur 0 999.3 1 98
2020-01-14 19:00:00 1.6 0 Calma 8 Norte 0 998.9 0.5 97
2020-01-14 18:00:00 1.6 3 Noroeste 7 Noroeste 0 998.4 -0.2 94
2020-01-14 17:00:00 2.2 4 Noroeste 8 Oeste 0 998.3 -1 92
2020-01-14 16:00:00 2.1 3 Nordeste 9 Nordeste 0 998.4 -1.7 92
2020-01-14 15:00:00 1.8 2 Este 11 Nordeste 0 998.6 -2.1 95
2020-01-14 14:00:00 1.2 3 Sudeste 8 Este 0 999.3 -1.5 97
2020-01-14 13:00:00 0.7 3 Este 9 Nordeste 0 1000.1 -0.1 99
2020-01-14 12:00:00 0.3 5 Nordeste 10 Nordeste 0 1000.7 1.1 99
2020-01-14 11:00:00 -0.1 3 Sudoeste 9 Sur 0 1000.8 1.4 100
2020-01-14 10:00:00 -0.2 5 Sur 9 Sur 0 1000.2 1 100
2020-01-14 09:00:00 -0.4 3 Sudoeste 7 Sudeste 0 999.6 0.8 99
2020-01-14 08:00:00 -0.4 4 Sur 8 Oeste 0 999.4 0.6 99
2020-01-14 07:00:00 -0.4 4 Sudoeste 8 Sudoeste 0 999.2 0.3 99
2020-01-14 06:00:00 -0.4 5 Oeste 10 Oeste 0 998.8 -0.3 99
2020-01-14 05:00:00 -0.1 3 Oeste 7 Sudoeste 0 998.8 -0.3 99
2020-01-14 04:00:00 0 5 Sudoeste 9 Sudoeste 0 998.9 -0.8 99
2020-01-14 03:00:00 0.1 4 Sudoeste 10 Sudoeste 0 999.1 -0.9 99
2020-01-14 02:00:00 0.3 5 Sur 9 Sur 0 999.1 -0.4 99
2020-01-14 01:00:00 0.6 4 Sur 9 Sudeste 0 999.7 0 99
2020-01-14 00:00:00 0.7 3 Norte 9 Norte 0 1000 0.2 99
2020-01-13 23:00:00 0.9 0 Calma 5 Nordeste 0 999.5 -0.3 99
2020-01-13 22:00:00 0.8 3 Nordeste 8 Norte 0 999.7 -0.1 98
2020-01-13 21:00:00 0.8 4 Sur 6 Sur 0 999.8 -0.1 98
2020-01-13 20:00:00 1 2 Sudeste 8 Noroeste 0 999.8 0 97
2020-01-13 19:00:00 1.2 4 Sudeste 9 Sudoeste 0 999.8 -0.2 97
2020-01-13 18:00:00 1.6 7 Sur 10 Sur 0 999.9 -0.4 96
2020-01-13 17:00:00 1.7 5 Sur 10 Sur 0 999.8 -1.3 95
2020-01-13 16:00:00 1.6 6 Sudeste 10 Sudeste 0 1000 -2.2 95
2020-01-13 15:00:00 1.2 4 Noroeste 8 Nordeste 0 1000.3 -2.9 97
2020-01-13 14:00:00 0.8 4 Este 10 Norte 0 1001.1 -2.4 97
2020-01-13 13:00:00 0.4 3 Este 10 Noroeste 0 1002.2 -1.4 99
2020-01-13 12:00:00 0.2 3 Norte 10 Nordeste 0 1003.2 -0.1 99
2020-01-13 11:00:00 -0.1 5 Este 12 Este 0 1003.5 0 99
2020-01-13 10:00:00 -0.3 5 Nordeste 11 Este 0 1003.6 0 99
2020-01-13 09:00:00 -0.3 6 Este 12 Sudeste 0 1003.3 -0.5 99
2020-01-13 08:00:00 0 6 Sudeste 9 Sudeste 0 1003.5 -0.6 99
2020-01-13 07:00:00 0.3 4 Sudeste 8 Sudeste 0 1003.6 -1 100
2020-01-13 06:00:00 0.3 3 Sudoeste 6 Sudoeste 0 1003.8 -1.4 99
2020-01-13 05:00:00 0.5 4 Sur 7 Sudeste 0 1004.1 -1.1 99
2020-01-13 04:00:00 0.6 5 Sur 9 Sur 0 1004.6 -1.4 99
2020-01-13 03:00:00 0.8 4 Oeste 8 Oeste 0 1005.2 -1.2 99
2020-01-13 02:00:00 1.1 4 Sudoeste 6 Sudoeste 0 1005.2 -1.6 99
2020-01-13 01:00:00 1.1 5 Noroeste 8 Oeste 0 1006 -0.9 99
2020-01-13 00:00:00 1.2 3 Sur 9 Sur 0 1006.4 -0.7 99
2020-01-12 23:00:00 1.5 3 Sudeste 9 Sur 0 1006.8 -0.2 99
2020-01-12 22:00:00 1.7 5 Sudoeste 9 Sudoeste 0 1006.9 0.2 99
2020-01-12 21:00:00 1.8 5 Sudoeste 7 Sur 0 1007.1 0.8 99
2020-01-12 20:00:00 2.1 2 Sur 5 Sur 0 1007 0.6 99
2020-01-12 19:00:00 2 2 Sudoeste 8 Noroeste 0 1006.7 0.4 99
2020-01-12 18:00:00 2.1 4 Oeste 8 Noroeste 0 1006.3 -0.1 99
2020-01-12 17:00:00 2.3 3 Sur 8 Oeste 0 1006.4 -0.5 98
2020-01-12 16:00:00 2.3 4 Oeste 6 Oeste 0 1006.3 -1.3 99
2020-01-12 15:00:00 2.2 2 Sudoeste 10 Sur 0 1006.4 -2.1 99
2020-01-12 14:00:00 1.9 5 Sur 9 Sur 0 1006.9 -1.7 99
2020-01-12 13:00:00 0.8 5 Sur 9 Sur 0 1007.6 -0.7 99
2020-01-12 12:00:00 -0.5 5 Sudoeste 10 Sudoeste 0 1008.5 0.9 99
2020-01-12 11:00:00 -1.5 2 Sur 5 Sur 0 1008.6 1.2 99
2020-01-12 10:00:00 -2.4 2 Sur 4 Oeste 0 1008.3 1.4 98
2020-01-12 09:00:00 -3 3 Oeste 8 Sudoeste 0 1007.6 1.2 98
2020-01-12 08:00:00 -3.3 4 Sudoeste 7 Sudoeste 0 1007.4 1.1 98
2020-01-12 07:00:00 -3.3 2 Oeste 7 Oeste 0 1006.9 0.4 98
2020-01-12 06:00:00 -3.4 5 Sudoeste 7 Sudoeste 0 1006.4 -0.1 96
2020-01-12 05:00:00 -1.9 0 Calma 5 Nordeste 0 1006.3 -0.2 96
2020-01-12 04:00:00 -1.2 5 Nordeste 6 Norte 0 1006.5 -0.2 97
2020-01-12 03:00:00 -1 4 Norte 5 Nordeste 0 1006.5 -0.5 97
2020-01-12 02:00:00 -0.8 3 Este 6 Este 0 1006.5 -0.5 95
2020-01-12 01:00:00 -0.1 3 Nordeste 8 Norte 0 1006.7 -0.1 95
2020-01-12 00:00:00 0.9 4 Nordeste 10 Nordeste 0 1007 0.2 94
2020-01-11 23:00:00 1.8 7 Nordeste 13 Nordeste 0 1007 0.3 94
2020-01-11 22:00:00 2.1 8 Nordeste 12 Norte 0 1006.8 0.4 92
2020-01-11 21:00:00 2.4 8 Norte 11 Norte 0 1006.8 0.8 92
2020-01-11 20:00:00 3.1 7 Nordeste 12 Nordeste 0 1006.7 0.8 90
2020-01-11 19:00:00 4.2 8 Nordeste 14 Nordeste 0 1006.4 0.3 86
2020-01-11 18:00:00 6.3 8 Nordeste 13 Nordeste 0 1006 -0.2 81
2020-01-11 17:00:00 8.5 7 Nordeste 11 Nordeste 0 1005.9 -1.1 71
2020-01-11 16:00:00 9.4 4 Este 9 Oeste 0 1006.1 -1.8 67
2020-01-11 15:00:00 8.7 3 Oeste 10 Sudoeste 0 1006.2 -2.7 72
2020-01-11 14:00:00 7.1 4 Oeste 12 Oeste 0 1007 -2 81
2020-01-11 13:00:00 5.8 4 Sur 9 Sudoeste 0 1007.9 -0.4 99
2020-01-11 12:00:00 3 6 Sudoeste 9 Sudoeste 0 1008.9 1.1 100
2020-01-11 11:00:00 1.7 9 Sudoeste 12 Sudoeste 0 1009 1.7 100
2020-01-11 10:00:00 0.9 8 Sur 11 Sudoeste 0 1008.3 1.1 100
2020-01-11 09:00:00 -0.3 5 Sudoeste 11 Sudoeste 0 1007.8 1 99
2020-01-11 08:00:00 -0.2 5 Sudoeste 9 Sudoeste 0 1007.3 0.6 99
2020-01-11 07:00:00 0.2 3 Sur 5 Sur 0 1007.2 0.3 99
2020-01-11 06:00:00 1.3 3 Oeste 7 Noroeste 0 1006.8 0.4 99
2020-01-11 05:00:00 1.9 4 Sudoeste 6 Sur 0 1006.7 0.7 99
2020-01-11 04:00:00 2.9 3 Sudoeste 8 Sudoeste 0 1006.9 0.9 100
2020-01-11 03:00:00 3.3 6 Sur 8 Sur 0 1006.4 0.4 99
2020-01-11 02:00:00 4 0 Calma 5 Oeste 0 1006 0.3 100
2020-01-11 01:00:00 4 4 Oeste 6 Noroeste 0 1006 0.9 100
2020-01-11 00:00:00 4 2 Este 8 Norte 0 1006 1.2 100
2020-01-10 23:00:00 3.5 5 Norte 8 Norte 0 1005.7 1.3 99
2020-01-10 22:00:00 2.7 0 Calma 5 Nordeste 0 1005.1 1 96
2020-01-10 21:00:00 3.9 5 Nordeste 10 Nordeste 0 1004.8 1 97
2020-01-10 20:00:00 4.6 7 Nordeste 12 Nordeste 0 1004.4 1 97
2020-01-10 19:00:00 5.3 7 Norte 10 Nordeste 0 1004.1 0.7 95
2020-01-10 18:00:00 6.7 4 Norte 7 Sur 0 1003.8 0.2 92
2020-01-10 17:00:00 7.9 5 Sudeste 10 Sudeste 0 1003.4 -0.2 86
2020-01-10 16:00:00 8.5 4 Sur 8 Sudeste 0 1003.4 -0.6 84
2020-01-10 15:00:00 7.1 3 Sudeste 7 Oeste 0 1003.6 -0.5 89
2020-01-10 14:00:00 6.7 6 Oeste 10 Noroeste 0 1003.6 -0.2 93
2020-01-10 13:00:00 6.3 6 Sur 9 Sudoeste 0 1004 1.2 94
2020-01-10 12:00:00 6.2 2 Norte 15 Este 0 1004.1 2.1 93
2020-01-10 11:00:00 5.1 5 Nordeste 10 Nordeste 0 1003.8 1.6 99
2020-01-10 10:00:00 4.4 3 Noroeste 10 Sudoeste 0 1002.8 1.4 99
2020-01-10 09:00:00 4.3 4 Sur 11 Nordeste 0.2 1002 0.9 99
2020-01-10 08:00:00 4.2 4 Nordeste 9 Nordeste 0 1002.2 1.6 99
2020-01-10 07:00:00 4 5 Este 13 Sur 0 1001.4 0.4 99
2020-01-10 06:00:00 3.9 8 Sur 20 Sudoeste 0 1001.1 0.3 100
2020-01-10 05:00:00 4.1 12 Sudoeste 21 Sudoeste 0.2 1000.6 -0.1 100
2020-01-10 04:00:00 4.6 9 Sudoeste 14 Sudoeste 0 1001 0.1 100
2020-01-10 03:00:00 4.6 7 Sudoeste 12 Sudoeste 0 1000.8 -0.3 100
2020-01-10 02:00:00 4.3 5 Sudoeste 9 Sudoeste 0 1000.7 -0.6 100
2020-01-10 01:00:00 4.1 7 Sudoeste 12 Sudoeste 0 1000.9 -0.7 100
2020-01-10 00:00:00 4.1 5 Sudoeste 9 Sudoeste 0 1001.1 -0.2 100
2020-01-09 23:00:00 4.1 5 Sur 8 Sudeste 0 1001.3 -0.2 100
2020-01-09 22:00:00 3.8 0 Calma 8 Norte 0 1001.6 0 100
2020-01-09 21:00:00 3.9 4 Norte 7 Este 0 1001.3 -0.4 99
2020-01-09 20:00:00 4 3 Este 14 Sudeste 0 1001.5 0.3 99
2020-01-09 19:00:00 4.4 5 Sudeste 9 Sudeste 0 1001.6 -0.2 100
2020-01-09 18:00:00 4 4 Noroeste 10 Este 0 1001.7 -0.8 99
2020-01-09 17:00:00 4.3 3 Este 6 Este 0 1001.2 -2 99
2020-01-09 16:00:00 4.3 4 Este 8 Sudeste 0 1001.8 -2.2 98
2020-01-09 15:00:00 4.4 4 Sudoeste 10 Sudoeste 0 1002.5 -2.4 99
2020-01-09 14:00:00 4 4 Oeste 8 Sudoeste 0 1003.2 -2.4 99
2020-01-09 13:00:00 3.4 2 Noroeste 6 Este 0 1004 -1.3 100
2020-01-09 12:00:00 3.1 0 Calma 6 Este 0 1004.9 0 100
2020-01-09 11:00:00 2.7 2 Sudoeste 7 Norte 0 1005.6 0.6 100
2020-01-09 10:00:00 2.7 4 Nordeste 8 Norte 0 1005.3 -0.1 100
2020-01-09 09:00:00 2.7 3 Nordeste 6 Sur 0 1004.9 -0.6 100
2020-01-09 08:00:00 2.7 2 Oeste 5 Oeste 0 1005 -0.6 100
2020-01-09 07:00:00 2.7 4 Oeste 6 Oeste 0 1005.4 -0.7 100
2020-01-09 06:00:00 2.9 2 Sudoeste 6 Norte 0 1005.5 -1 100
2020-01-09 05:00:00 2.9 3 Norte 8 Norte 0 1005.6 -1.2 100
2020-01-09 04:00:00 3.1 4 Norte 6 Norte 0 1006.1 -1 99
2020-01-09 03:00:00 3.1 4 Nordeste 7 Norte 0 1006.5 -1 99
2020-01-09 02:00:00 3.2 4 Norte 6 Este 0 1006.8 -0.9 99
2020-01-09 01:00:00 3.5 2 Sur 8 Sudeste 0 1007.1 -0.8 99
2020-01-09 00:00:00 3.6 0 Calma 7 Nordeste 0 1007.5 -0.2 99
2020-01-08 23:00:00 3.6 3 Sudeste 6 Sudoeste 0 1007.7 0 99
2020-01-08 22:00:00 3.6 5 Sudoeste 9 Sudoeste 0 1007.9 0.3 99
2020-01-08 21:00:00 3.7 7 Sudoeste 12 Sudoeste 0 1007.7 0.2 99
2020-01-08 20:00:00 4 6 Sudoeste 11 Sudoeste 0 1007.7 0.5 99
2020-01-08 19:00:00 3.9 5 Sudoeste 10 Sur 0 1007.6 0.4 98
2020-01-08 18:00:00 4.2 4 Sur 12 Sudoeste 0 1007.5 0.1 96
2020-01-08 17:00:00 4.5 6 Sur 13 Sudoeste 0 1007.2 -0.6 94
2020-01-08 16:00:00 4.9 9 Sudoeste 15 Sur 0 1007.2 -1.1 92
2020-01-08 15:00:00 4.9 9 Sudoeste 15 Oeste 0 1007.4 -1.7 92
2020-01-08 14:00:00 4.1 9 Sudoeste 14 Sudoeste 0 1007.8 -1.6 92
2020-01-08 13:00:00 3.6 4 Oeste 12 Oeste 0 1008.3 -0.4 92
2020-01-08 12:00:00 2.4 3 Norte 14 Este 0 1009.1 1.1 94
2020-01-08 11:00:00 1.9 8 Este 17 Sudeste 0 1009.4 2.1 95
2020-01-08 10:00:00 2 9 Este 17 Este 0 1008.7 1.8 97
2020-01-08 09:00:00 2.1 9 Este 15 Este 0 1008 1.5 97
2020-01-08 08:00:00 2.2 6 Nordeste 12 Este 0 1007.3 0.9 97
2020-01-08 07:00:00 2.2 6 Nordeste 11 Nordeste 0 1006.9 0.4 97
2020-01-08 06:00:00 2.4 3 Nordeste 6 Norte 0 1006.5 -0.1 98
2020-01-08 05:00:00 2.5 3 Norte 9 Nordeste 0 1006.4 -0.1 97
2020-01-08 04:00:00 2.6 4 Norte 7 Nordeste 0 1006.5 -0.2 97
2020-01-08 03:00:00 2.6 0 Calma 6 Sudoeste 0 1006.6 -0.3 97
2020-01-08 02:00:00 2.7 2 Sur 5 Sudoeste 0 1006.5 -0.4 97
2020-01-08 01:00:00 2.6 2 Este 6 Norte 0 1006.7 -0.3 97
2020-01-08 00:00:00 2.7 2 Sur 6 Norte 0 1006.9 -0.1 97
2020-01-07 23:00:00 2.8 2 Sudeste 8 Norte 0 1006.9 -0.2 97
2020-01-07 22:00:00 2.9 5 Noroeste 8 Norte 0 1007 0 97
2020-01-07 21:00:00 3 3 Este 13 Este 0 1007 0.1 96
2020-01-07 20:00:00 3 6 Este 11 Este 0 1007.1 0.2 95
2020-01-07 19:00:00 3.1 6 Nordeste 12 Nordeste 0 1007 0.1 94
2020-01-07 18:00:00 3.1 5 Este 8 Este 0 1006.9 -0.4 94
2020-01-07 17:00:00 3.2 4 Noroeste 9 Sudoeste 0 1006.9 -0.8 94
2020-01-07 16:00:00 3.2 3 Sur 6 Sudoeste 0 1006.9 -1.8 94
2020-01-07 15:00:00 3.2 4 Sur 10 Sudoeste 0 1007.3 -2 94
2020-01-07 14:00:00 3.2 3 Sudoeste 14 Sudoeste 0 1007.7 -2 94
2020-01-07 13:00:00 3.3 4 Sudoeste 8 Oeste 0 1008.7 -0.9 95
2020-01-07 12:00:00 3.2 4 Noroeste 10 Noroeste 0 1009.3 0 96
2020-01-07 11:00:00 3.1 4 Oeste 9 Sudoeste 0 1009.7 1.1 96
2020-01-07 10:00:00 3 5 Sudoeste 9 Oeste 0 1009.6 1.2 97
2020-01-07 09:00:00 2.9 5 Sudoeste 10 Sudoeste 0 1009.3 1.1 98
2020-01-07 08:00:00 2.9 8 Sudoeste 11 Sudoeste 0 1008.6 0.2 98
2020-01-07 07:00:00 3 6 Sudoeste 9 Sudoeste 0 1008.4 0 98
2020-01-07 06:00:00 3 5 Sudoeste 8 Sudoeste 0 1008.2 -0.5 98
2020-01-07 05:00:00 3 5 Sudoeste 10 Sudoeste 0 1008.4 0 98
2020-01-07 04:00:00 3.2 5 Sudoeste 9 Sudoeste 0.2 1008.4 0 98
2020-01-07 03:00:00 3.3 6 Sudoeste 11 Sudoeste 0 1008.7 0.5 98
2020-01-07 02:00:00 3.4 6 Sudoeste 13 Sudoeste 0 1008.4 0.6 98
2020-01-07 01:00:00 3.8 5 Sur 13 Sudoeste 0 1008.4 0.8 98
2020-01-07 00:00:00 3.9 5 Oeste 9 Sur 0 1008.2 0.8 98
2020-01-06 23:00:00 4 4 Sur 7 Sur 0 1007.8 0.8 98
2020-01-06 22:00:00 3.9 3 Sudeste 5 Nordeste 0 1007.6 1.2 98
2020-01-06 21:00:00 3.8 3 Nordeste 8 Nordeste 0 1007.4 1.4 98
2020-01-06 20:00:00 3.8 4 Nordeste 8 Nordeste 0 1007 1.4 98
2020-01-06 19:00:00 3.8 5 Este 8 Este 0 1006.4 0.9 97
2020-01-06 18:00:00 3.9 5 Sudeste 6 Sur 0 1006 0.6 96
2020-01-06 17:00:00 4.1 2 Sur 6 Sudeste 0 1005.6 -0.2 94
2020-01-06 16:00:00 4 3 Este 10 Sudoeste 0 1005.5 -1.1 94
2020-01-06 15:00:00 4 5 Sudoeste 12 Sudoeste 0 1005.4 -1.9 94
2020-01-06 14:00:00 3.5 6 Sudoeste 14 Sudoeste 0 1005.8 -1.7 95
2020-01-06 13:00:00 2.6 4 Sudoeste 10 Sudoeste 0 1006.6 -1 98
2020-01-06 12:00:00 1.8 4 Oeste 8 Oeste 0 1007.3 0.4 99
2020-01-06 11:00:00 1 4 Sur 7 Sur 0 1007.5 1.1 99
2020-01-06 10:00:00 0.6 6 Oeste 9 Oeste 0 1007.6 1.2 99